Pagrindinis puslapis
METAR-TAF:

METAR-TAF

Oro uostai :

Bagdadas, Irakas

platuma: 33-15-45N, ilguma: 44-14-04E, Aukštis: 35 m

Dabartinis oras

Ataskaita buvo paskelbta 11 minutes, ne 05:00 UTC
Vėjas 3 kt iš Vakarų/Pietvakarių
Temperatūra 17°C
Drėgmė 45%
Slėgis 1017 hPa
Matomumas: 3400 m
migla

METAR: ORBI 290500Z 24003KT 3400 HZ NSC 17/05 Q1017 NOSIG

Laikas: 08:11 (05:11 UTC)

Prognozė

Ataskaita buvo paskelbta 7 valandos ir 11 minutes, ne 22:00 UTC
Prognozė galioja nuo 29 metu 00 UTC su 29 metu 24 UTC
Vėjas 6 kt iš Vakarų/Šiaurės Vakarų
Matomumas: 6000 m

TAF: ORBI 282200Z 2900/2924 30006KT 6000 NSC

Orai ataskaitas ir orų prognozės (METAR, TAF).

turimą stotys yra geltonos ir raudonos taškus žemėlapyje.

Perkelti pele per norėdami pamatyti stoties vardą.

Tada spustelėkite, norėdami matyti oro stebėjimo ir prognozės.

Norėdami pakeisti žemėlapį: spustelėkite ant žalios mygtukų su juodo kryžiaus žemyn,; žalią mygtuką su brūkšneliu, jei norite nutolinti; arba žalių rodyklių gretimoms žemėlapius.


METAR-TAF: